createdAt,value
2018-12-06T00:47:43.700Z,14.98
2018-12-06T00:50:15.597Z,15.72
2018-12-06T01:31:57.035Z,15.15
2018-12-06T01:49:21.681Z,13.03
2018-12-06T01:51:49.655Z,13.70
2018-12-06T01:54:17.533Z,12.73
2018-12-06T01:56:45.455Z,13.00
2018-12-06T01:59:13.318Z,11.63
2018-12-06T02:13:47.017Z,12.60
2018-12-06T02:16:17.219Z,11.43
2018-12-06T02:18:58.829Z,12.10
2018-12-06T02:21:27.784Z,10.78
2018-12-06T02:23:55.644Z,12.60
2018-12-06T02:47:20.086Z,12.23
2018-12-06T02:58:46.963Z,12.20
2018-12-06T03:07:14.900Z,12.35
2018-12-06T03:10:07.831Z,13.45
2018-12-06T03:18:51.845Z,12.50
2018-12-06T03:21:23.611Z,13.15
2018-12-06T03:23:54.753Z,13.38
2018-12-06T03:26:47.491Z,12.68
2018-12-06T03:29:33.695Z,11.75
2018-12-06T03:37:56.061Z,12.05
2018-12-06T03:52:21.978Z,13.00
2018-12-06T03:57:50.451Z,11.15
2018-12-06T04:00:18.376Z,13.72
2018-12-06T04:02:46.298Z,14.30
2018-12-06T04:17:12.131Z,11.78
2018-12-06T04:19:40.768Z,12.95
2018-12-06T04:22:26.100Z,13.72
2018-12-06T04:31:12.494Z,13.70
2018-12-06T04:33:43.443Z,12.45
2018-12-06T04:36:17.012Z,12.70
2018-12-06T04:39:01.009Z,14.55
2018-12-06T04:53:43.242Z,12.65
2018-12-06T05:05:11.788Z,14.05
2018-12-06T05:31:33.903Z,12.53
2018-12-06T05:54:23.435Z,13.50
2018-12-06T05:57:08.035Z,14.73
2018-12-06T05:59:52.500Z,15.25
2018-12-06T06:02:21.179Z,14.23
2018-12-06T06:04:49.044Z,16.60
2018-12-06T06:25:14.136Z,16.62
2018-12-06T06:27:44.508Z,13.40
2018-12-06T06:30:14.012Z,13.75
2018-12-06T06:56:34.762Z,14.15
2018-12-06T07:17:13.597Z,14.60
2018-12-06T07:28:55.984Z,13.28
2018-12-06T07:31:34.174Z,15.68
2018-12-06T07:34:09.192Z,12.75
2018-12-06T07:39:52.595Z,15.43
2018-12-06T07:42:29.171Z,14.23
2018-12-06T07:45:07.403Z,15.32
2018-12-06T07:47:47.002Z,15.13
2018-12-06T07:50:15.704Z,15.40
2018-12-06T07:52:53.523Z,15.20
2018-12-06T07:55:21.471Z,15.03
2018-12-06T08:01:12.332Z,15.65
2018-12-06T08:06:55.853Z,13.55
2018-12-06T08:09:34.011Z,14.98
2018-12-06T08:15:15.178Z,13.25
2018-12-06T08:17:53.308Z,14.28
2018-12-06T08:20:32.880Z,13.55
2018-12-06T08:23:04.842Z,15.13
2018-12-06T08:25:45.152Z,13.60
2018-12-06T08:28:16.849Z,16.57
2018-12-06T08:30:53.471Z,16.50
2018-12-06T08:33:33.290Z,16.07
2018-12-06T08:36:05.170Z,13.48
2018-12-06T08:38:36.567Z,15.78
2018-12-06T08:41:16.257Z,16.15
2018-12-06T08:46:59.241Z,15.05
2018-12-06T08:49:37.256Z,14.65
2018-12-06T08:52:17.772Z,16.07
2018-12-06T09:03:44.549Z,15.15
2018-12-06T09:09:21.688Z,13.62
2018-12-06T09:15:04.710Z,16.45
2018-12-06T09:17:43.418Z,14.43
2018-12-06T09:23:24.852Z,16.45
2018-12-06T09:26:03.058Z,16.42
2018-12-06T09:28:38.360Z,22.70
2018-12-06T09:34:19.532Z,15.15
2018-12-06T09:36:57.809Z,21.57
2018-12-06T09:39:32.060Z,17.70
2018-12-06T09:42:12.705Z,15.10
2018-12-06T09:47:52.687Z,14.55
2018-12-06T09:50:30.542Z,15.00
2018-12-06T09:53:04.025Z,16.00
2018-12-06T09:55:44.515Z,13.95
2018-12-06T09:58:21.748Z,15.48
2018-12-06T10:00:52.762Z,14.95
2018-12-06T10:03:20.659Z,15.75
2018-12-06T10:06:04.292Z,15.18
2018-12-06T10:08:40.436Z,17.42
2018-12-06T10:11:18.692Z,17.12
2018-12-06T10:13:52.263Z,21.50
2018-12-06T10:16:29.604Z,40.23
2018-12-06T10:22:12.906Z,15.93
2018-12-06T10:24:48.167Z,15.50
2018-12-06T10:27:25.762Z,19.97
2018-12-06T10:30:05.774Z,18.60
2018-12-06T10:35:45.171Z,16.93
2018-12-06T10:38:13.031Z,15.40
2018-12-06T10:40:56.521Z,16.50
2018-12-06T10:43:31.660Z,16.00
2018-12-06T10:46:09.126Z,17.70
2018-12-06T10:48:48.815Z,16.27
2018-12-06T10:51:31.889Z,21.53
2018-12-06T10:57:08.266Z,16.53
2018-12-06T10:59:56.945Z,16.00
2018-12-06T11:05:24.940Z,17.43
2018-12-06T11:08:00.371Z,17.30
2018-12-06T11:10:38.118Z,15.60
2018-12-06T11:16:18.079Z,16.27
2018-12-06T11:18:57.735Z,15.05
2018-12-06T11:21:31.669Z,15.53
2018-12-06T11:24:11.574Z,15.63
2018-12-06T11:26:47.353Z,15.15
2018-12-06T11:29:25.375Z,14.18
2018-12-06T11:31:56.477Z,14.90
2018-12-06T11:34:34.215Z,17.12
2018-12-06T11:37:11.155Z,16.27
2018-12-06T11:39:45.365Z,15.13
2018-12-06T11:42:20.020Z,16.25
2018-12-06T11:48:03.698Z,14.75
2018-12-06T11:50:41.702Z,125.82
2018-12-06T11:53:16.040Z,32.53
2018-12-06T11:55:56.981Z,20.08
2018-12-06T11:58:30.382Z,14.55
2018-12-06T12:01:04.881Z,16.00
2018-12-06T12:03:44.552Z,14.63
2018-12-06T12:06:18.791Z,15.35
2018-12-06T12:08:52.353Z,15.63
2018-12-06T12:11:29.986Z,14.58
2018-12-06T12:14:04.620Z,15.30
2018-12-06T12:16:42.184Z,15.63
2018-12-06T12:19:23.049Z,14.03
2018-12-06T12:21:54.886Z,14.25
2018-12-06T12:24:28.841Z,14.50
2018-12-06T12:30:11.844Z,14.95
2018-12-06T12:32:49.983Z,14.15
2018-12-06T12:35:24.459Z,13.48
2018-12-06T12:37:56.770Z,13.80
2018-12-06T12:43:43.550Z,16.40
2018-12-06T12:46:21.577Z,13.60
2018-12-06T12:48:55.768Z,14.78
2018-12-06T12:51:33.276Z,14.15
2018-12-06T12:54:07.780Z,12.53
2018-12-06T12:56:45.177Z,13.25
2018-12-06T12:59:20.789Z,11.57
2018-12-06T13:01:58.307Z,11.73
2018-12-06T13:04:26.212Z,12.05
2018-12-06T13:07:08.644Z,10.43
2018-12-06T13:09:46.923Z,11.05
2018-12-06T13:12:20.995Z,11.93
2018-12-06T13:14:58.492Z,11.15
2018-12-06T13:17:34.308Z,10.98
2018-12-06T13:20:09.432Z,11.88
2018-12-06T13:22:47.055Z,12.18
2018-12-06T13:25:24.826Z,10.90
2018-12-06T13:45:57.700Z,11.83
2018-12-06T14:18:39.620Z,18.85
2018-12-06T14:21:26.229Z,16.90
2018-12-06T14:23:54.701Z,18.65
2018-12-06T14:26:45.665Z,19.77
2018-12-06T14:29:23.005Z,17.02
2018-12-06T14:32:00.556Z,18.90
2018-12-06T14:34:36.068Z,18.52
2018-12-06T14:37:13.648Z,17.98
2018-12-06T14:39:48.117Z,17.27
2018-12-06T15:47:06.708Z,45.70
2018-12-06T15:49:34.924Z,43.60
2018-12-06T15:52:04.165Z,41.65
2018-12-06T15:54:33.225Z,44.23
2018-12-06T15:57:01.467Z,44.05
2018-12-06T15:59:29.777Z,47.75
2018-12-06T16:01:58.097Z,54.40
2018-12-06T16:04:26.307Z,63.25
2018-12-06T16:06:56.594Z,58.55
2018-12-06T16:09:25.484Z,62.45
2018-12-06T16:11:54.806Z,70.15
2018-12-06T16:14:22.717Z,84.13
2018-12-06T16:16:51.746Z,95.38
2018-12-06T16:19:20.001Z,94.22
2018-12-06T16:21:49.091Z,90.15
2018-12-06T16:24:17.368Z,80.97
2018-12-06T16:26:45.305Z,80.55
2018-12-06T16:29:15.184Z,50.90
2018-12-06T16:31:43.464Z,50.00
2018-12-06T16:34:12.585Z,40.38
2018-12-06T16:36:40.892Z,37.50
2018-12-06T16:39:09.392Z,30.77
2018-12-06T16:41:38.189Z,32.28
2018-12-06T16:44:06.819Z,36.15
2018-12-06T16:46:35.136Z,37.75
2018-12-06T16:49:10.142Z,33.85
2018-12-06T16:51:35.353Z,40.88
2018-12-06T16:54:03.333Z,33.95
2018-12-06T16:56:31.600Z,28.62
2018-12-06T16:59:00.339Z,34.88
2018-12-06T17:01:28.453Z,27.87
2018-12-06T17:03:56.758Z,28.40
2018-12-06T17:06:25.031Z,28.55
2018-12-06T17:08:53.307Z,29.27
2018-12-06T17:11:22.541Z,31.37
2018-12-06T17:13:50.681Z,27.93
2018-12-06T17:16:18.943Z,32.78
2018-12-06T17:18:47.176Z,33.28
2018-12-06T17:21:15.649Z,33.60
2018-12-06T17:23:43.802Z,34.88
2018-12-06T17:26:12.046Z,39.60
2018-12-06T17:28:39.948Z,35.80
2018-12-06T17:31:08.239Z,35.73
2018-12-06T17:33:36.727Z,35.60
2018-12-06T17:36:04.876Z,38.80
2018-12-06T17:38:33.025Z,36.63
2018-12-06T17:41:01.284Z,36.90
2018-12-06T17:43:29.642Z,37.70
2018-12-06T17:45:58.141Z,39.05
2018-12-06T17:48:26.948Z,38.58
2018-12-06T17:50:55.201Z,35.28
2018-12-06T17:53:23.832Z,36.93
2018-12-06T17:55:54.649Z,33.10
2018-12-06T17:58:24.312Z,30.00
2018-12-06T18:00:52.473Z,30.52
2018-12-06T18:03:21.789Z,28.23
2018-12-06T18:05:49.798Z,31.77
2018-12-06T18:08:19.262Z,32.73
2018-12-06T18:10:48.074Z,36.45
2018-12-06T18:13:18.045Z,38.33
2018-12-06T18:15:47.291Z,46.85
2018-12-06T18:18:15.376Z,52.15
2018-12-06T18:20:43.557Z,57.45
2018-12-06T18:23:11.827Z,66.55
2018-12-06T18:25:41.067Z,80.03
2018-12-06T18:28:10.203Z,65.85
2018-12-06T18:30:39.233Z,56.45
2018-12-06T18:33:07.378Z,54.13
2018-12-06T18:35:35.703Z,60.48
2018-12-06T18:38:04.008Z,62.88
2018-12-06T18:40:32.184Z,54.90
2018-12-06T18:43:01.726Z,56.92
2018-12-06T18:45:29.969Z,53.13
2018-12-06T18:47:59.683Z,56.60
2018-12-06T18:50:27.771Z,44.23
2018-12-06T18:52:56.057Z,38.40
2018-12-06T18:55:24.346Z,38.40
2018-12-06T18:57:52.572Z,48.05
2018-12-06T19:00:20.857Z,46.88
2018-12-06T19:02:49.245Z,38.70
2018-12-06T19:05:18.235Z,37.15
2018-12-06T19:07:46.511Z,49.65
2018-12-06T19:10:14.801Z,53.92
2018-12-06T19:12:43.888Z,74.50
2018-12-06T19:15:12.967Z,67.12
2018-12-06T19:17:41.262Z,47.65
2018-12-06T19:20:09.552Z,44.27
2018-12-06T19:25:32.761Z,39.38
2018-12-06T19:28:00.659Z,35.80
2018-12-06T19:30:28.895Z,35.20
2018-12-06T19:32:57.970Z,37.55
2018-12-06T19:35:27.472Z,35.98
2018-12-06T19:37:55.731Z,37.98
2018-12-06T19:40:24.016Z,39.88
2018-12-06T19:42:52.283Z,36.80
2018-12-06T19:45:20.580Z,39.45
2018-12-06T19:47:49.687Z,40.95
2018-12-06T19:50:17.923Z,37.48
2018-12-06T19:52:46.210Z,34.65
2018-12-06T19:55:14.488Z,34.25
2018-12-06T19:57:42.754Z,32.38
2018-12-06T20:00:11.191Z,27.85
2018-12-06T20:02:40.068Z,28.67
2018-12-06T20:05:08.057Z,27.42
2018-12-06T20:07:37.656Z,27.50
2018-12-06T20:10:07.520Z,25.95
2018-12-06T20:12:35.670Z,26.42
2018-12-06T20:15:04.278Z,25.02
2018-12-06T20:17:32.251Z,25.30
2018-12-06T20:20:00.529Z,26.95
2018-12-06T20:22:28.805Z,27.62
2018-12-06T20:24:57.090Z,28.15
2018-12-06T20:27:25.340Z,28.12
2018-12-06T20:29:53.244Z,32.55
2018-12-06T20:32:22.321Z,33.73
2018-12-06T20:34:50.564Z,38.10
2018-12-06T20:37:18.849Z,44.13
2018-12-06T20:39:47.129Z,43.17
2018-12-06T20:42:15.001Z,40.75
2018-12-06T20:44:43.261Z,42.88
2018-12-06T20:47:16.031Z,53.20
2018-12-06T20:49:44.320Z,59.93
2018-12-06T20:52:12.629Z,63.60
2018-12-06T20:54:40.537Z,71.62
2018-12-06T20:57:08.764Z,82.20
2018-12-06T20:59:37.020Z,82.00
2018-12-06T21:02:05.543Z,82.85
2018-12-06T21:04:33.441Z,97.72
2018-12-06T21:07:01.441Z,87.15
2018-12-06T21:09:29.689Z,78.52
2018-12-06T21:11:57.583Z,67.70
2018-12-06T21:14:26.339Z,60.70
2018-12-06T21:16:54.599Z,50.70
2018-12-06T21:19:24.067Z,52.75
2018-12-06T21:21:52.344Z,49.27
2018-12-06T21:24:20.247Z,48.60
2018-12-06T21:26:48.471Z,50.15
2018-12-06T21:29:16.379Z,54.70
2018-12-06T21:31:45.821Z,53.63
2018-12-06T21:34:14.936Z,51.70
2018-12-06T21:36:43.206Z,51.92
2018-12-06T21:39:11.498Z,49.50
2018-12-06T21:41:39.415Z,44.03
2018-12-06T21:44:07.604Z,46.10
2018-12-06T21:46:35.893Z,45.83
2018-12-06T21:49:04.241Z,50.50
2018-12-06T21:51:32.472Z,56.35
2018-12-06T21:54:00.739Z,83.05
2018-12-06T21:56:29.001Z,71.12
2018-12-06T21:58:57.281Z,57.67
2018-12-06T22:01:25.556Z,53.50
2018-12-06T22:03:53.854Z,50.98
2018-12-06T22:06:38.887Z,55.85
2018-12-06T22:09:07.594Z,55.75
2018-12-06T22:11:36.834Z,58.35
2018-12-06T22:14:04.990Z,59.80
2018-12-06T22:16:34.280Z,69.72
2018-12-06T22:19:03.626Z,70.32
2018-12-06T22:21:32.660Z,69.27
2018-12-06T22:24:00.524Z,68.00
2018-12-06T22:26:28.794Z,65.28
2018-12-06T22:28:57.076Z,72.42
2018-12-06T22:31:25.336Z,73.30
2018-12-06T22:33:53.637Z,73.37
2018-12-06T22:36:21.947Z,76.45
2018-12-06T22:38:50.200Z,82.75
2018-12-06T22:41:18.430Z,81.55
2018-12-06T22:43:46.727Z,92.92
2018-12-06T22:46:15.059Z,87.85
2018-12-06T22:48:43.256Z,78.47
2018-12-06T22:51:11.551Z,59.13
2018-12-06T22:53:39.820Z,55.88
2018-12-06T22:56:08.111Z,49.80
2018-12-06T22:58:35.991Z,46.77
2018-12-06T23:01:07.336Z,48.02
2018-12-06T23:03:37.439Z,47.45
2018-12-06T23:06:06.932Z,44.70
2018-12-06T23:08:35.237Z,42.23
2018-12-06T23:11:03.527Z,32.75
2018-12-06T23:13:31.783Z,33.28
2018-12-06T23:16:00.075Z,32.85
2018-12-06T23:18:28.361Z,32.35
2018-12-06T23:20:56.617Z,29.82
2018-12-06T23:23:24.865Z,28.57
2018-12-06T23:25:53.196Z,28.47
2018-12-06T23:28:21.630Z,26.62
2018-12-06T23:30:49.770Z,28.35
2018-12-06T23:33:17.632Z,32.85
2018-12-06T23:35:45.485Z,32.08
2018-12-06T23:38:13.710Z,35.63
2018-12-06T23:40:41.975Z,35.35
2018-12-06T23:43:11.099Z,32.88
2018-12-06T23:45:39.354Z,34.38
2018-12-06T23:48:08.143Z,32.20
2018-12-06T23:50:36.308Z,31.37
2018-12-06T23:53:04.624Z,30.08
2018-12-06T23:55:32.887Z,28.85
2018-12-06T23:58:01.172Z,34.33
